sensor_id;sensor_type;location;lat;lon;timestamp;P1;durP1;ratioP1;P2;durP2;ratioP2
19891;SDS011;10108;50.142;8.724;2023-04-24T00:00:31;6.97;;;5.40;;
19891;SDS011;10108;50.142;8.724;2023-04-24T00:02:57;6.80;;;5.10;;
19891;SDS011;10108;50.142;8.724;2023-04-24T00:05:25;5.85;;;4.97;;
19891;SDS011;10108;50.142;8.724;2023-04-24T00:07:51;7.70;;;5.50;;
19891;SDS011;10108;50.142;8.724;2023-04-24T00:10:20;8.25;;;5.30;;
19891;SDS011;10108;50.142;8.724;2023-04-24T00:12:47;9.45;;;5.35;;
19891;SDS011;10108;50.142;8.724;2023-04-24T00:15:13;6.55;;;4.93;;
19891;SDS011;10108;50.142;8.724;2023-04-24T00:17:39;6.68;;;5.10;;
19891;SDS011;10108;50.142;8.724;2023-04-24T00:20:05;6.57;;;5.20;;
19891;SDS011;10108;50.142;8.724;2023-04-24T00:22:32;5.95;;;5.07;;
19891;SDS011;10108;50.142;8.724;2023-04-24T00:24:58;7.88;;;5.28;;
19891;SDS011;10108;50.142;8.724;2023-04-24T00:27:24;6.40;;;5.40;;
19891;SDS011;10108;50.142;8.724;2023-04-24T00:29:51;5.97;;;5.13;;
19891;SDS011;10108;50.142;8.724;2023-04-24T00:32:17;8.70;;;5.22;;
19891;SDS011;10108;50.142;8.724;2023-04-24T00:34:43;7.53;;;5.45;;
19891;SDS011;10108;50.142;8.724;2023-04-24T00:37:09;6.78;;;5.40;;
19891;SDS011;10108;50.142;8.724;2023-04-24T00:39:36;7.72;;;5.47;;
19891;SDS011;10108;50.142;8.724;2023-04-24T00:42:02;8.95;;;5.35;;
19891;SDS011;10108;50.142;8.724;2023-04-24T00:44:28;7.75;;;5.45;;
19891;SDS011;10108;50.142;8.724;2023-04-24T00:46:55;8.95;;;5.20;;
19891;SDS011;10108;50.142;8.724;2023-04-24T00:49:21;7.07;;;5.35;;
19891;SDS011;10108;50.142;8.724;2023-04-24T00:51:47;9.02;;;5.20;;
19891;SDS011;10108;50.142;8.724;2023-04-24T00:54:15;7.72;;;5.30;;
19891;SDS011;10108;50.142;8.724;2023-04-24T00:56:42;7.18;;;5.20;;
19891;SDS011;10108;50.142;8.724;2023-04-24T00:59:09;6.25;;;5.10;;
19891;SDS011;10108;50.142;8.724;2023-04-24T01:01:36;7.30;;;5.10;;
19891;SDS011;10108;50.142;8.724;2023-04-24T01:04:02;6.18;;;4.93;;
19891;SDS011;10108;50.142;8.724;2023-04-24T01:06:29;6.35;;;5.00;;
19891;SDS011;10108;50.142;8.724;2023-04-24T01:08:57;6.72;;;5.32;;
19891;SDS011;10108;50.142;8.724;2023-04-24T01:11:25;7.32;;;4.90;;
19891;SDS011;10108;50.142;8.724;2023-04-24T01:13:51;6.93;;;5.10;;
19891;SDS011;10108;50.142;8.724;2023-04-24T01:16:17;7.80;;;5.10;;
19891;SDS011;10108;50.142;8.724;2023-04-24T01:18:46;7.85;;;5.35;;
19891;SDS011;10108;50.142;8.724;2023-04-24T01:21:13;6.95;;;5.40;;
19891;SDS011;10108;50.142;8.724;2023-04-24T01:23:45;6.80;;;5.13;;
19891;SDS011;10108;50.142;8.724;2023-04-24T01:26:12;7.90;;;5.65;;
19891;SDS011;10108;50.142;8.724;2023-04-24T01:28:39;5.72;;;4.95;;
19891;SDS011;10108;50.142;8.724;2023-04-24T01:31:05;6.45;;;5.00;;
19891;SDS011;10108;50.142;8.724;2023-04-24T01:33:32;6.57;;;5.00;;
19891;SDS011;10108;50.142;8.724;2023-04-24T01:35:58;7.28;;;5.00;;
19891;SDS011;10108;50.142;8.724;2023-04-24T01:38:25;6.20;;;5.00;;
19891;SDS011;10108;50.142;8.724;2023-04-24T01:40:52;8.48;;;5.28;;
19891;SDS011;10108;50.142;8.724;2023-04-24T01:43:18;7.65;;;4.90;;
19891;SDS011;10108;50.142;8.724;2023-04-24T01:45:45;7.05;;;5.10;;
19891;SDS011;10108;50.142;8.724;2023-04-24T01:48:12;6.85;;;5.00;;
19891;SDS011;10108;50.142;8.724;2023-04-24T01:50:38;7.68;;;5.20;;
19891;SDS011;10108;50.142;8.724;2023-04-24T01:53:05;8.85;;;5.30;;
19891;SDS011;10108;50.142;8.724;2023-04-24T01:55:31;6.88;;;5.00;;
19891;SDS011;10108;50.142;8.724;2023-04-24T01:57:57;7.00;;;4.95;;
19891;SDS011;10108;50.142;8.724;2023-04-24T02:00:25;6.55;;;5.13;;
19891;SDS011;10108;50.142;8.724;2023-04-24T02:02:52;9.68;;;5.25;;
19891;SDS011;10108;50.142;8.724;2023-04-24T02:05:18;7.95;;;5.20;;
19891;SDS011;10108;50.142;8.724;2023-04-24T02:07:45;8.60;;;5.30;;
19891;SDS011;10108;50.142;8.724;2023-04-24T02:10:11;6.90;;;5.40;;
19891;SDS011;10108;50.142;8.724;2023-04-24T02:12:41;7.85;;;5.43;;
19891;SDS011;10108;50.142;8.724;2023-04-24T02:15:07;7.60;;;5.07;;
19891;SDS011;10108;50.142;8.724;2023-04-24T02:17:36;6.60;;;5.20;;
19891;SDS011;10108;50.142;8.724;2023-04-24T02:20:04;6.97;;;5.40;;
19891;SDS011;10108;50.142;8.724;2023-04-24T02:22:31;6.57;;;5.18;;
19891;SDS011;10108;50.142;8.724;2023-04-24T02:25:01;7.95;;;5.28;;
19891;SDS011;10108;50.142;8.724;2023-04-24T02:27:27;8.18;;;5.10;;
19891;SDS011;10108;50.142;8.724;2023-04-24T02:29:53;7.15;;;5.28;;
19891;SDS011;10108;50.142;8.724;2023-04-24T02:32:19;6.18;;;5.03;;
19891;SDS011;10108;50.142;8.724;2023-04-24T02:34:45;6.20;;;5.10;;
19891;SDS011;10108;50.142;8.724;2023-04-24T02:37:12;6.35;;;4.97;;
19891;SDS011;10108;50.142;8.724;2023-04-24T02:39:38;6.75;;;4.90;;
19891;SDS011;10108;50.142;8.724;2023-04-24T02:42:04;8.05;;;4.90;;
19891;SDS011;10108;50.142;8.724;2023-04-24T02:44:30;6.55;;;5.28;;
19891;SDS011;10108;50.142;8.724;2023-04-24T02:46:57;7.85;;;5.18;;
19891;SDS011;10108;50.142;8.724;2023-04-24T02:49:23;7.03;;;5.00;;
19891;SDS011;10108;50.142;8.724;2023-04-24T02:51:49;7.30;;;4.97;;
19891;SDS011;10108;50.142;8.724;2023-04-24T02:54:15;6.40;;;5.00;;
19891;SDS011;10108;50.142;8.724;2023-04-24T02:56:41;6.22;;;5.07;;
19891;SDS011;10108;50.142;8.724;2023-04-24T02:59:08;8.55;;;5.10;;
19891;SDS011;10108;50.142;8.724;2023-04-24T03:01:34;6.88;;;5.30;;
19891;SDS011;10108;50.142;8.724;2023-04-24T03:04:01;6.85;;;5.05;;
19891;SDS011;10108;50.142;8.724;2023-04-24T03:06:27;6.43;;;5.43;;
19891;SDS011;10108;50.142;8.724;2023-04-24T03:08:53;8.88;;;5.13;;
19891;SDS011;10108;50.142;8.724;2023-04-24T03:11:20;7.55;;;5.15;;
19891;SDS011;10108;50.142;8.724;2023-04-24T03:13:46;7.70;;;5.25;;
19891;SDS011;10108;50.142;8.724;2023-04-24T03:16:12;7.88;;;5.50;;
19891;SDS011;10108;50.142;8.724;2023-04-24T03:18:38;8.73;;;5.38;;
19891;SDS011;10108;50.142;8.724;2023-04-24T03:21:06;8.43;;;5.15;;
19891;SDS011;10108;50.142;8.724;2023-04-24T03:23:33;6.78;;;5.47;;
19891;SDS011;10108;50.142;8.724;2023-04-24T03:25:59;7.95;;;5.18;;
19891;SDS011;10108;50.142;8.724;2023-04-24T03:28:25;5.45;;;4.95;;
19891;SDS011;10108;50.142;8.724;2023-04-24T03:30:57;6.68;;;5.30;;
19891;SDS011;10108;50.142;8.724;2023-04-24T03:33:24;5.90;;;4.95;;
19891;SDS011;10108;50.142;8.724;2023-04-24T03:35:58;5.45;;;4.90;;
19891;SDS011;10108;50.142;8.724;2023-04-24T03:38:24;8.00;;;5.30;;
19891;SDS011;10108;50.142;8.724;2023-04-24T03:41:06;9.05;;;5.20;;
19891;SDS011;10108;50.142;8.724;2023-04-24T03:43:37;6.13;;;5.07;;
19891;SDS011;10108;50.142;8.724;2023-04-24T03:46:05;6.65;;;5.45;;
19891;SDS011;10108;50.142;8.724;2023-04-24T03:48:36;7.72;;;5.20;;
19891;SDS011;10108;50.142;8.724;2023-04-24T03:51:02;7.22;;;5.15;;
19891;SDS011;10108;50.142;8.724;2023-04-24T03:53:30;7.57;;;5.03;;
19891;SDS011;10108;50.142;8.724;2023-04-24T03:55:56;5.82;;;4.85;;
19891;SDS011;10108;50.142;8.724;2023-04-24T03:58:23;6.00;;;5.40;;
19891;SDS011;10108;50.142;8.724;2023-04-24T04:00:50;6.35;;;5.30;;
19891;SDS011;10108;50.142;8.724;2023-04-24T04:03:36;6.30;;;5.05;;
19891;SDS011;10108;50.142;8.724;2023-04-24T04:06:02;7.78;;;5.35;;
19891;SDS011;10108;50.142;8.724;2023-04-24T04:08:29;8.02;;;5.47;;
19891;SDS011;10108;50.142;8.724;2023-04-24T04:10:56;6.10;;;5.50;;
19891;SDS011;10108;50.142;8.724;2023-04-24T04:13:22;6.20;;;5.60;;
19891;SDS011;10108;50.142;8.724;2023-04-24T04:15:48;8.60;;;5.28;;
19891;SDS011;10108;50.142;8.724;2023-04-24T04:18:15;6.15;;;5.35;;
19891;SDS011;10108;50.142;8.724;2023-04-24T04:20:41;6.93;;;5.60;;
19891;SDS011;10108;50.142;8.724;2023-04-24T04:23:09;6.50;;;5.47;;
19891;SDS011;10108;50.142;8.724;2023-04-24T04:25:50;8.75;;;5.70;;
19891;SDS011;10108;50.142;8.724;2023-04-24T04:28:19;7.40;;;5.50;;
19891;SDS011;10108;50.142;8.724;2023-04-24T04:30:47;6.47;;;5.50;;
19891;SDS011;10108;50.142;8.724;2023-04-24T04:33:13;8.15;;;5.63;;
19891;SDS011;10108;50.142;8.724;2023-04-24T04:35:40;6.95;;;5.43;;
19891;SDS011;10108;50.142;8.724;2023-04-24T04:38:07;9.02;;;6.13;;
19891;SDS011;10108;50.142;8.724;2023-04-24T04:40:47;7.85;;;5.80;;
19891;SDS011;10108;50.142;8.724;2023-04-24T04:43:15;6.28;;;5.60;;
19891;SDS011;10108;50.142;8.724;2023-04-24T04:45:47;8.50;;;5.68;;
19891;SDS011;10108;50.142;8.724;2023-04-24T04:48:27;6.88;;;5.20;;
19891;SDS011;10108;50.142;8.724;2023-04-24T04:50:55;6.43;;;5.53;;
19891;SDS011;10108;50.142;8.724;2023-04-24T04:53:22;7.50;;;5.65;;
19891;SDS011;10108;50.142;8.724;2023-04-24T04:55:48;7.50;;;5.60;;
19891;SDS011;10108;50.142;8.724;2023-04-24T04:58:15;8.27;;;6.10;;
19891;SDS011;10108;50.142;8.724;2023-04-24T05:00:43;6.60;;;5.65;;
19891;SDS011;10108;50.142;8.724;2023-04-24T05:03:18;6.88;;;5.57;;
19891;SDS011;10108;50.142;8.724;2023-04-24T05:05:44;6.78;;;5.47;;
19891;SDS011;10108;50.142;8.724;2023-04-24T05:08:12;7.68;;;5.68;;
19891;SDS011;10108;50.142;8.724;2023-04-24T05:10:39;8.07;;;5.80;;
19891;SDS011;10108;50.142;8.724;2023-04-24T05:13:05;7.00;;;6.10;;
19891;SDS011;10108;50.142;8.724;2023-04-24T05:16:03;7.63;;;5.75;;
19891;SDS011;10108;50.142;8.724;2023-04-24T05:18:54;8.82;;;5.82;;
19891;SDS011;10108;50.142;8.724;2023-04-24T05:21:45;6.93;;;5.93;;
19891;SDS011;10108;50.142;8.724;2023-04-24T05:24:37;7.00;;;5.85;;
19891;SDS011;10108;50.142;8.724;2023-04-24T05:27:31;8.85;;;5.80;;
19891;SDS011;10108;50.142;8.724;2023-04-24T05:30:26;8.80;;;6.38;;
19891;SDS011;10108;50.142;8.724;2023-04-24T05:33:19;7.47;;;6.20;;
19891;SDS011;10108;50.142;8.724;2023-04-24T05:36:11;8.57;;;6.30;;
19891;SDS011;10108;50.142;8.724;2023-04-24T05:39:03;8.13;;;6.05;;
19891;SDS011;10108;50.142;8.724;2023-04-24T05:41:56;7.38;;;5.82;;
19891;SDS011;10108;50.142;8.724;2023-04-24T05:47:36;7.88;;;5.90;;
19891;SDS011;10108;50.142;8.724;2023-04-24T05:50:02;8.05;;;6.40;;
19891;SDS011;10108;50.142;8.724;2023-04-24T05:52:28;8.23;;;5.90;;
19891;SDS011;10108;50.142;8.724;2023-04-24T05:54:55;7.85;;;5.80;;
19891;SDS011;10108;50.142;8.724;2023-04-24T05:57:46;9.02;;;6.28;;
19891;SDS011;10108;50.142;8.724;2023-04-24T06:00:38;9.57;;;6.30;;
19891;SDS011;10108;50.142;8.724;2023-04-24T06:03:31;6.90;;;5.97;;
19891;SDS011;10108;50.142;8.724;2023-04-24T06:06:23;8.13;;;6.00;;
19891;SDS011;10108;50.142;8.724;2023-04-24T06:09:14;8.30;;;6.15;;
19891;SDS011;10108;50.142;8.724;2023-04-24T06:12:11;8.77;;;6.40;;
19891;SDS011;10108;50.142;8.724;2023-04-24T06:15:05;10.85;;;5.85;;
19891;SDS011;10108;50.142;8.724;2023-04-24T06:17:58;8.48;;;5.88;;
19891;SDS011;10108;50.142;8.724;2023-04-24T06:20:49;7.22;;;5.60;;
19891;SDS011;10108;50.142;8.724;2023-04-24T06:23:41;10.63;;;6.03;;
19891;SDS011;10108;50.142;8.724;2023-04-24T06:26:32;8.50;;;5.90;;
19891;SDS011;10108;50.142;8.724;2023-04-24T06:29:27;7.05;;;5.80;;
19891;SDS011;10108;50.142;8.724;2023-04-24T06:32:19;8.55;;;6.15;;
19891;SDS011;10108;50.142;8.724;2023-04-24T06:35:11;8.30;;;6.35;;
19891;SDS011;10108;50.142;8.724;2023-04-24T06:38:02;9.63;;;6.55;;
19891;SDS011;10108;50.142;8.724;2023-04-24T06:40:54;8.85;;;6.25;;
19891;SDS011;10108;50.142;8.724;2023-04-24T06:43:45;9.73;;;6.28;;
19891;SDS011;10108;50.142;8.724;2023-04-24T06:46:37;9.40;;;6.70;;
19891;SDS011;10108;50.142;8.724;2023-04-24T06:49:31;10.45;;;6.50;;
19891;SDS011;10108;50.142;8.724;2023-04-24T06:52:26;8.55;;;6.80;;
19891;SDS011;10108;50.142;8.724;2023-04-24T06:55:17;8.45;;;6.40;;
19891;SDS011;10108;50.142;8.724;2023-04-24T06:58:10;10.75;;;7.00;;
19891;SDS011;10108;50.142;8.724;2023-04-24T07:01:06;8.57;;;6.22;;
19891;SDS011;10108;50.142;8.724;2023-04-24T07:03:57;11.50;;;6.90;;
19891;SDS011;10108;50.142;8.724;2023-04-24T07:06:23;8.70;;;6.65;;
19891;SDS011;10108;50.142;8.724;2023-04-24T07:08:49;8.77;;;6.50;;
19891;SDS011;10108;50.142;8.724;2023-04-24T07:11:16;10.15;;;6.80;;
19891;SDS011;10108;50.142;8.724;2023-04-24T07:13:42;9.13;;;6.60;;
19891;SDS011;10108;50.142;8.724;2023-04-24T07:16:09;8.93;;;6.60;;
19891;SDS011;10108;50.142;8.724;2023-04-24T07:18:35;8.90;;;6.75;;
19891;SDS011;10108;50.142;8.724;2023-04-24T07:21:02;8.13;;;6.40;;
19891;SDS011;10108;50.142;8.724;2023-04-24T07:23:29;8.60;;;6.05;;
19891;SDS011;10108;50.142;8.724;2023-04-24T07:25:56;9.57;;;6.25;;
19891;SDS011;10108;50.142;8.724;2023-04-24T07:28:22;8.50;;;6.25;;
19891;SDS011;10108;50.142;8.724;2023-04-24T07:30:48;9.73;;;6.53;;
19891;SDS011;10108;50.142;8.724;2023-04-24T07:33:14;8.82;;;6.47;;
19891;SDS011;10108;50.142;8.724;2023-04-24T07:35:40;9.60;;;6.65;;
19891;SDS011;10108;50.142;8.724;2023-04-24T07:38:07;8.25;;;6.22;;
19891;SDS011;10108;50.142;8.724;2023-04-24T07:40:33;10.65;;;6.65;;
19891;SDS011;10108;50.142;8.724;2023-04-24T07:42:59;9.18;;;6.72;;
19891;SDS011;10108;50.142;8.724;2023-04-24T07:45:25;9.82;;;6.88;;
19891;SDS011;10108;50.142;8.724;2023-04-24T07:47:53;10.55;;;6.55;;
19891;SDS011;10108;50.142;8.724;2023-04-24T07:50:19;8.88;;;6.68;;
19891;SDS011;10108;50.142;8.724;2023-04-24T07:52:46;7.60;;;6.00;;
19891;SDS011;10108;50.142;8.724;2023-04-24T07:55:13;11.82;;;6.90;;
19891;SDS011;10108;50.142;8.724;2023-04-24T07:57:39;9.32;;;6.22;;
19891;SDS011;10108;50.142;8.724;2023-04-24T08:00:06;7.45;;;5.80;;
19891;SDS011;10108;50.142;8.724;2023-04-24T08:02:37;10.15;;;6.45;;
19891;SDS011;10108;50.142;8.724;2023-04-24T08:05:03;9.65;;;5.85;;
19891;SDS011;10108;50.142;8.724;2023-04-24T08:07:30;7.85;;;5.97;;
19891;SDS011;10108;50.142;8.724;2023-04-24T08:09:56;8.45;;;6.10;;
19891;SDS011;10108;50.142;8.724;2023-04-24T08:12:22;9.32;;;6.38;;
19891;SDS011;10108;50.142;8.724;2023-04-24T08:14:48;11.27;;;6.38;;
19891;SDS011;10108;50.142;8.724;2023-04-24T08:17:15;8.27;;;6.50;;
19891;SDS011;10108;50.142;8.724;2023-04-24T08:19:42;9.63;;;6.50;;
19891;SDS011;10108;50.142;8.724;2023-04-24T08:22:13;9.07;;;6.45;;
19891;SDS011;10108;50.142;8.724;2023-04-24T08:24:40;9.25;;;6.50;;
19891;SDS011;10108;50.142;8.724;2023-04-24T08:27:07;8.70;;;6.80;;
19891;SDS011;10108;50.142;8.724;2023-04-24T08:29:34;8.13;;;6.03;;
19891;SDS011;10108;50.142;8.724;2023-04-24T08:32:00;10.32;;;6.32;;
19891;SDS011;10108;50.142;8.724;2023-04-24T08:34:26;8.75;;;6.30;;
19891;SDS011;10108;50.142;8.724;2023-04-24T08:36:52;10.55;;;6.10;;
19891;SDS011;10108;50.142;8.724;2023-04-24T08:39:18;9.02;;;5.97;;
19891;SDS011;10108;50.142;8.724;2023-04-24T08:41:45;7.70;;;6.32;;
19891;SDS011;10108;50.142;8.724;2023-04-24T08:44:13;8.25;;;6.15;;
19891;SDS011;10108;50.142;8.724;2023-04-24T08:46:42;9.32;;;6.50;;
19891;SDS011;10108;50.142;8.724;2023-04-24T08:49:13;8.95;;;6.50;;
19891;SDS011;10108;50.142;8.724;2023-04-24T08:51:41;9.15;;;6.43;;
19891;SDS011;10108;50.142;8.724;2023-04-24T08:54:08;7.97;;;6.05;;
19891;SDS011;10108;50.142;8.724;2023-04-24T08:56:34;8.95;;;5.95;;
19891;SDS011;10108;50.142;8.724;2023-04-24T08:59:05;10.60;;;6.05;;
19891;SDS011;10108;50.142;8.724;2023-04-24T09:01:32;9.13;;;6.03;;
19891;SDS011;10108;50.142;8.724;2023-04-24T09:04:00;8.38;;;5.85;;
19891;SDS011;10108;50.142;8.724;2023-04-24T09:06:29;9.48;;;5.97;;
19891;SDS011;10108;50.142;8.724;2023-04-24T09:08:59;7.32;;;5.75;;
19891;SDS011;10108;50.142;8.724;2023-04-24T09:11:26;9.35;;;6.10;;
19891;SDS011;10108;50.142;8.724;2023-04-24T09:13:53;7.75;;;6.03;;
19891;SDS011;10108;50.142;8.724;2023-04-24T09:16:20;12.57;;;5.63;;
19891;SDS011;10108;50.142;8.724;2023-04-24T09:18:48;9.00;;;5.60;;
19891;SDS011;10108;50.142;8.724;2023-04-24T09:21:14;10.02;;;5.53;;
19891;SDS011;10108;50.142;8.724;2023-04-24T09:23:41;7.20;;;5.55;;
19891;SDS011;10108;50.142;8.724;2023-04-24T09:26:08;8.82;;;5.70;;
19891;SDS011;10108;50.142;8.724;2023-04-24T09:28:36;7.93;;;5.82;;
19891;SDS011;10108;50.142;8.724;2023-04-24T09:31:08;7.68;;;5.55;;
19891;SDS011;10108;50.142;8.724;2023-04-24T09:33:38;7.60;;;5.53;;
19891;SDS011;10108;50.142;8.724;2023-04-24T09:36:04;8.30;;;5.68;;
19891;SDS011;10108;50.142;8.724;2023-04-24T09:40:59;8.43;;;5.10;;
19891;SDS011;10108;50.142;8.724;2023-04-24T09:43:26;6.88;;;5.20;;
19891;SDS011;10108;50.142;8.724;2023-04-24T09:45:55;8.95;;;5.43;;
19891;SDS011;10108;50.142;8.724;2023-04-24T09:48:31;9.55;;;5.18;;
19891;SDS011;10108;50.142;8.724;2023-04-24T09:51:33;8.93;;;5.47;;
19891;SDS011;10108;50.142;8.724;2023-04-24T09:54:02;9.43;;;5.30;;
19891;SDS011;10108;50.142;8.724;2023-04-24T09:56:33;8.00;;;5.30;;
19891;SDS011;10108;50.142;8.724;2023-04-24T09:59:06;9.63;;;5.80;;
19891;SDS011;10108;50.142;8.724;2023-04-24T10:01:32;10.27;;;5.10;;
19891;SDS011;10108;50.142;8.724;2023-04-24T10:03:59;10.85;;;5.00;;
19891;SDS011;10108;50.142;8.724;2023-04-24T10:06:35;8.52;;;5.28;;
19891;SDS011;10108;50.142;8.724;2023-04-24T10:09:01;6.68;;;5.20;;
19891;SDS011;10108;50.142;8.724;2023-04-24T10:11:29;6.28;;;4.95;;
19891;SDS011;10108;50.142;8.724;2023-04-24T10:13:56;7.82;;;5.18;;
19891;SDS011;10108;50.142;8.724;2023-04-24T10:16:23;8.35;;;5.50;;
19891;SDS011;10108;50.142;8.724;2023-04-24T10:18:49;6.75;;;5.20;;
19891;SDS011;10108;50.142;8.724;2023-04-24T10:21:16;7.63;;;5.28;;
19891;SDS011;10108;50.142;8.724;2023-04-24T10:23:43;7.75;;;5.20;;
19891;SDS011;10108;50.142;8.724;2023-04-24T10:26:12;6.60;;;5.00;;
19891;SDS011;10108;50.142;8.724;2023-04-24T10:28:44;6.45;;;4.85;;
19891;SDS011;10108;50.142;8.724;2023-04-24T10:31:11;10.13;;;5.00;;
19891;SDS011;10108;50.142;8.724;2023-04-24T10:33:42;7.97;;;5.72;;
19891;SDS011;10108;50.142;8.724;2023-04-24T10:36:09;7.97;;;5.20;;
19891;SDS011;10108;50.142;8.724;2023-04-24T10:38:37;8.07;;;5.57;;
19891;SDS011;10108;50.142;8.724;2023-04-24T10:41:07;6.85;;;5.60;;
19891;SDS011;10108;50.142;8.724;2023-04-24T10:43:35;9.70;;;6.80;;
19891;SDS011;10108;50.142;8.724;2023-04-24T10:46:02;10.10;;;7.18;;
19891;SDS011;10108;50.142;8.724;2023-04-24T10:48:29;8.40;;;7.13;;
19891;SDS011;10108;50.142;8.724;2023-04-24T10:50:56;10.43;;;7.63;;
19891;SDS011;10108;50.142;8.724;2023-04-24T10:53:24;10.93;;;9.82;;
19891;SDS011;10108;50.142;8.724;2023-04-24T10:56:04;12.80;;;11.50;;
19891;SDS011;10108;50.142;8.724;2023-04-24T10:58:39;14.73;;;11.30;;
19891;SDS011;10108;50.142;8.724;2023-04-24T11:01:05;12.20;;;11.00;;
19891;SDS011;10108;50.142;8.724;2023-04-24T11:03:33;13.32;;;11.18;;
19891;SDS011;10108;50.142;8.724;2023-04-24T11:06:07;13.25;;;11.85;;
19891;SDS011;10108;50.142;8.724;2023-04-24T11:08:43;12.45;;;11.15;;
19891;SDS011;10108;50.142;8.724;2023-04-24T11:11:15;11.77;;;10.57;;
19891;SDS011;10108;50.142;8.724;2023-04-24T11:16:30;10.93;;;9.73;;
19891;SDS011;10108;50.142;8.724;2023-04-24T11:21:42;10.38;;;8.57;;
19891;SDS011;10108;50.142;8.724;2023-04-24T11:24:25;9.68;;;8.68;;
19891;SDS011;10108;50.142;8.724;2023-04-24T11:26:54;10.23;;;8.88;;
19891;SDS011;10108;50.142;8.724;2023-04-24T11:29:22;9.52;;;8.55;;
19891;SDS011;10108;50.142;8.724;2023-04-24T11:34:55;9.27;;;8.13;;
19891;SDS011;10108;50.142;8.724;2023-04-24T11:37:23;9.38;;;8.45;;
19891;SDS011;10108;50.142;8.724;2023-04-24T11:39:52;9.48;;;8.57;;
19891;SDS011;10108;50.142;8.724;2023-04-24T11:42:20;10.10;;;8.00;;
19891;SDS011;10108;50.142;8.724;2023-04-24T11:44:48;9.48;;;7.85;;
19891;SDS011;10108;50.142;8.724;2023-04-24T11:47:15;9.18;;;7.88;;
19891;SDS011;10108;50.142;8.724;2023-04-24T11:49:41;11.40;;;8.32;;
19891;SDS011;10108;50.142;8.724;2023-04-24T11:52:08;8.85;;;7.95;;
19891;SDS011;10108;50.142;8.724;2023-04-24T11:54:34;8.57;;;7.43;;
19891;SDS011;10108;50.142;8.724;2023-04-24T11:57:03;9.82;;;7.07;;
19891;SDS011;10108;50.142;8.724;2023-04-24T11:59:35;8.85;;;7.35;;
19891;SDS011;10108;50.142;8.724;2023-04-24T12:02:03;11.10;;;7.47;;
19891;SDS011;10108;50.142;8.724;2023-04-24T12:04:37;10.40;;;8.63;;
19891;SDS011;10108;50.142;8.724;2023-04-24T12:07:07;11.07;;;8.88;;
19891;SDS011;10108;50.142;8.724;2023-04-24T12:12:14;9.63;;;8.32;;
19891;SDS011;10108;50.142;8.724;2023-04-24T12:14:50;9.70;;;8.55;;
19891;SDS011;10108;50.142;8.724;2023-04-24T12:17:27;9.93;;;8.60;;
19891;SDS011;10108;50.142;8.724;2023-04-24T12:20:05;10.90;;;9.05;;
19891;SDS011;10108;50.142;8.724;2023-04-24T12:22:49;10.65;;;9.10;;
19891;SDS011;10108;50.142;8.724;2023-04-24T12:25:23;10.52;;;8.70;;
19891;SDS011;10108;50.142;8.724;2023-04-24T12:27:54;11.95;;;10.85;;
19891;SDS011;10108;50.142;8.724;2023-04-24T12:30:43;12.05;;;10.95;;
19891;SDS011;10108;50.142;8.724;2023-04-24T12:33:19;12.00;;;10.80;;
19891;SDS011;10108;50.142;8.724;2023-04-24T12:35:47;11.82;;;10.63;;
19891;SDS011;10108;50.142;8.724;2023-04-24T12:38:15;12.07;;;10.88;;
19891;SDS011;10108;50.142;8.724;2023-04-24T12:40:43;12.70;;;10.73;;
19891;SDS011;10108;50.142;8.724;2023-04-24T12:43:16;12.70;;;11.30;;
19891;SDS011;10108;50.142;8.724;2023-04-24T12:45:46;12.02;;;10.82;;
19891;SDS011;10108;50.142;8.724;2023-04-24T12:48:13;11.85;;;10.65;;
19891;SDS011;10108;50.142;8.724;2023-04-24T12:50:40;12.07;;;10.77;;
19891;SDS011;10108;50.142;8.724;2023-04-24T12:53:08;12.25;;;10.52;;
19891;SDS011;10108;50.142;8.724;2023-04-24T12:55:34;11.63;;;10.30;;
19891;SDS011;10108;50.142;8.724;2023-04-24T12:58:01;12.32;;;10.40;;
19891;SDS011;10108;50.142;8.724;2023-04-24T13:00:28;13.05;;;10.52;;
19891;SDS011;10108;50.142;8.724;2023-04-24T13:02:55;13.73;;;10.32;;
19891;SDS011;10108;50.142;8.724;2023-04-24T13:05:21;14.35;;;11.02;;
19891;SDS011;10108;50.142;8.724;2023-04-24T13:07:47;12.63;;;10.50;;
19891;SDS011;10108;50.142;8.724;2023-04-24T13:10:14;11.82;;;10.50;;
19891;SDS011;10108;50.142;8.724;2023-04-24T13:12:40;11.40;;;10.25;;
19891;SDS011;10108;50.142;8.724;2023-04-24T13:15:10;13.45;;;10.35;;
19891;SDS011;10108;50.142;8.724;2023-04-24T13:17:37;11.27;;;10.15;;
19891;SDS011;10108;50.142;8.724;2023-04-24T13:20:04;12.52;;;10.40;;
19891;SDS011;10108;50.142;8.724;2023-04-24T13:22:30;14.55;;;10.40;;
19891;SDS011;10108;50.142;8.724;2023-04-24T13:24:56;10.88;;;9.73;;
19891;SDS011;10108;50.142;8.724;2023-04-24T13:27:23;13.18;;;10.25;;
19891;SDS011;10108;50.142;8.724;2023-04-24T13:29:49;12.80;;;10.00;;
19891;SDS011;10108;50.142;8.724;2023-04-24T13:32:15;13.02;;;9.40;;
19891;SDS011;10108;50.142;8.724;2023-04-24T13:34:41;12.07;;;9.20;;
19891;SDS011;10108;50.142;8.724;2023-04-24T13:37:08;11.65;;;9.27;;
19891;SDS011;10108;50.142;8.724;2023-04-24T13:39:34;11.85;;;8.57;;
19891;SDS011;10108;50.142;8.724;2023-04-24T13:42:01;10.95;;;8.35;;
19891;SDS011;10108;50.142;8.724;2023-04-24T13:44:28;12.32;;;8.20;;
19891;SDS011;10108;50.142;8.724;2023-04-24T13:46:55;24.55;;;22.10;;
19891;SDS011;10108;50.142;8.724;2023-04-24T13:49:22;25.77;;;23.27;;
19891;SDS011;10108;50.142;8.724;2023-04-24T13:51:53;25.10;;;22.70;;
19891;SDS011;10108;50.142;8.724;2023-04-24T13:54:21;25.45;;;22.95;;
19891;SDS011;10108;50.142;8.724;2023-04-24T13:56:49;26.05;;;23.48;;
19891;SDS011;10108;50.142;8.724;2023-04-24T13:59:15;24.80;;;22.45;;
19891;SDS011;10108;50.142;8.724;2023-04-24T14:01:41;24.60;;;22.10;;
19891;SDS011;10108;50.142;8.724;2023-04-24T14:04:07;23.70;;;21.40;;
19891;SDS011;10108;50.142;8.724;2023-04-24T14:06:34;23.67;;;21.20;;
19891;SDS011;10108;50.142;8.724;2023-04-24T14:09:00;22.50;;;20.40;;
19891;SDS011;10108;50.142;8.724;2023-04-24T14:11:26;22.13;;;19.83;;
19891;SDS011;10108;50.142;8.724;2023-04-24T14:13:53;21.17;;;19.08;;
19891;SDS011;10108;50.142;8.724;2023-04-24T14:16:22;21.02;;;18.92;;
19891;SDS011;10108;50.142;8.724;2023-04-24T14:18:48;20.67;;;18.67;;
19891;SDS011;10108;50.142;8.724;2023-04-24T14:21:14;19.98;;;17.80;;
19891;SDS011;10108;50.142;8.724;2023-04-24T14:23:40;19.33;;;17.42;;
19891;SDS011;10108;50.142;8.724;2023-04-24T14:26:06;18.42;;;16.35;;
19891;SDS011;10108;50.142;8.724;2023-04-24T14:28:32;18.77;;;15.40;;
19891;SDS011;10108;50.142;8.724;2023-04-24T14:30:59;16.52;;;14.93;;
19891;SDS011;10108;50.142;8.724;2023-04-24T14:33:25;15.73;;;14.30;;
19891;SDS011;10108;50.142;8.724;2023-04-24T14:35:51;15.68;;;14.18;;
19891;SDS011;10108;50.142;8.724;2023-04-24T14:38:18;15.50;;;14.10;;
19891;SDS011;10108;50.142;8.724;2023-04-24T14:40:44;15.60;;;14.00;;
19891;SDS011;10108;50.142;8.724;2023-04-24T14:43:10;14.77;;;13.27;;
19891;SDS011;10108;50.142;8.724;2023-04-24T14:45:37;14.27;;;12.85;;
19891;SDS011;10108;50.142;8.724;2023-04-24T14:48:03;13.98;;;12.57;;
19891;SDS011;10108;50.142;8.724;2023-04-24T14:50:30;14.30;;;12.45;;
19891;SDS011;10108;50.142;8.724;2023-04-24T14:52:56;13.60;;;12.20;;
19891;SDS011;10108;50.142;8.724;2023-04-24T14:55:23;15.07;;;12.45;;
19891;SDS011;10108;50.142;8.724;2023-04-24T14:57:50;14.45;;;12.10;;
19891;SDS011;10108;50.142;8.724;2023-04-24T15:00:16;14.88;;;12.05;;
19891;SDS011;10108;50.142;8.724;2023-04-24T15:02:43;14.57;;;11.60;;
19891;SDS011;10108;50.142;8.724;2023-04-24T15:05:10;14.00;;;10.70;;
19891;SDS011;10108;50.142;8.724;2023-04-24T15:07:37;13.20;;;10.40;;
19891;SDS011;10108;50.142;8.724;2023-04-24T15:10:04;13.35;;;10.05;;
19891;SDS011;10108;50.142;8.724;2023-04-24T15:12:31;13.25;;;9.95;;
19891;SDS011;10108;50.142;8.724;2023-04-24T15:14:57;12.68;;;10.20;;